createdAt,value
2018-04-23T00:02:21.250Z,16.60
2018-04-23T00:04:49.462Z,16.60
2018-04-23T00:07:17.837Z,16.60
2018-04-23T00:09:45.344Z,16.60
2018-04-23T00:12:12.858Z,16.60
2018-04-23T00:14:40.365Z,16.60
2018-04-23T00:17:07.877Z,16.40
2018-04-23T00:19:35.396Z,16.50
2018-04-23T00:22:02.967Z,16.50
2018-04-23T00:24:30.467Z,16.50
2018-04-23T00:26:57.995Z,16.40
2018-04-23T00:29:25.497Z,16.50
2018-04-23T00:31:53.785Z,16.50
2018-04-23T00:34:21.322Z,16.50
2018-04-23T00:36:48.853Z,16.70
2018-04-23T00:39:16.390Z,16.70
2018-04-23T00:41:44.199Z,16.80
2018-04-23T00:44:11.931Z,16.90
2018-04-23T00:46:39.450Z,17.20
2018-04-23T00:49:06.967Z,17.10
2018-04-23T00:51:34.489Z,17.10
2018-04-23T00:54:02.074Z,17.10
2018-04-23T00:56:30.119Z,17.20
2018-04-23T00:58:57.864Z,17.10
2018-04-23T01:01:25.380Z,17.20
2018-04-23T01:03:52.898Z,17.10
2018-04-23T01:06:20.421Z,17.20
2018-04-23T01:08:48.965Z,17.30
2018-04-23T01:11:16.497Z,17.30
2018-04-23T01:13:44.155Z,17.20
2018-04-23T01:16:11.670Z,17.10
2018-04-23T01:18:39.182Z,17.00
2018-04-23T01:21:06.854Z,16.90
2018-04-23T01:23:34.365Z,16.90
2018-04-23T01:26:01.954Z,17.10
2018-04-23T01:28:29.451Z,17.20
2018-04-23T01:30:56.988Z,17.20
2018-04-23T01:33:24.499Z,17.30
2018-04-23T01:35:52.017Z,17.20
2018-04-23T01:40:53.365Z,17.20
2018-04-23T01:43:20.904Z,17.00
2018-04-23T01:45:48.494Z,16.90
2018-04-23T01:48:16.025Z,16.90
2018-04-23T01:50:43.686Z,17.10
2018-04-23T01:53:11.480Z,17.10
2018-04-23T01:55:38.986Z,17.20
2018-04-23T01:58:06.518Z,17.20
2018-04-23T02:00:34.026Z,17.10
2018-04-23T02:03:01.585Z,17.00
2018-04-23T02:05:29.096Z,17.00
2018-04-23T02:07:56.826Z,16.90
2018-04-23T02:10:24.329Z,16.90
2018-04-23T02:12:51.854Z,16.80
2018-04-23T02:15:19.502Z,16.90
2018-04-23T02:17:47.276Z,16.90
2018-04-23T02:20:15.030Z,16.80
2018-04-23T02:22:42.558Z,16.70
2018-04-23T02:25:10.232Z,16.60
2018-04-23T02:27:37.740Z,16.60
2018-04-23T02:30:06.078Z,16.70
2018-04-23T02:32:34.801Z,16.70
2018-04-23T02:35:02.306Z,16.60
2018-04-23T02:37:29.828Z,16.60
2018-04-23T02:39:58.109Z,16.70
2018-04-23T02:42:25.821Z,16.60
2018-04-23T02:44:53.326Z,16.70
2018-04-23T02:47:21.018Z,16.60
2018-04-23T02:49:48.536Z,16.60
2018-04-23T02:52:16.269Z,16.60
2018-04-23T02:54:43.778Z,16.60
2018-04-23T02:57:11.483Z,16.60
2018-04-23T02:59:39.030Z,16.70
2018-04-23T03:02:06.552Z,16.80
2018-04-23T03:04:35.103Z,16.70
2018-04-23T03:07:02.622Z,16.70
2018-04-23T03:09:30.263Z,16.80
2018-04-23T03:11:57.779Z,16.80
2018-04-23T03:14:25.297Z,16.90
2018-04-23T03:16:52.953Z,16.90
2018-04-23T03:19:20.742Z,16.90
2018-04-23T03:21:48.261Z,16.80
2018-04-23T03:24:16.276Z,16.80
2018-04-23T03:26:43.807Z,16.90
2018-04-23T03:29:11.453Z,16.90
2018-04-23T03:31:39.386Z,16.90
2018-04-23T03:34:07.015Z,16.80
2018-04-23T03:36:34.521Z,16.80
2018-04-23T03:39:02.109Z,16.80
2018-04-23T03:41:29.666Z,16.80
2018-04-23T03:43:57.457Z,16.80
2018-04-23T03:46:24.969Z,16.80
2018-04-23T03:48:52.593Z,16.90
2018-04-23T03:51:20.129Z,16.80
2018-04-23T03:53:47.698Z,16.80
2018-04-23T03:56:15.213Z,16.90
2018-04-23T03:58:42.735Z,16.80
2018-04-23T04:01:10.280Z,16.80
2018-04-23T04:03:37.800Z,16.70
2018-04-23T04:06:05.549Z,16.40
2018-04-23T04:08:33.062Z,16.40
2018-04-23T04:11:00.731Z,16.50
2018-04-23T04:13:48.994Z,16.50
2018-04-23T04:16:28.290Z,16.50
2018-04-23T04:18:55.946Z,16.30
2018-04-23T04:21:23.457Z,16.40
2018-04-23T04:23:51.166Z,16.40
2018-04-23T04:26:18.804Z,16.50
2018-04-23T04:28:46.382Z,16.40
2018-04-23T04:31:13.886Z,16.40
2018-04-23T04:33:43.463Z,16.40
2018-04-23T04:36:11.213Z,16.30
2018-04-23T04:38:38.982Z,16.30
2018-04-23T04:41:06.487Z,16.30
2018-04-23T04:43:34.178Z,16.30
2018-04-23T04:46:01.679Z,16.30
2018-04-23T04:48:29.418Z,16.30
2018-04-23T04:50:56.924Z,16.30
2018-04-23T04:53:24.450Z,16.30
2018-04-23T04:55:52.106Z,16.30
2018-04-23T04:58:19.935Z,16.20
2018-04-23T05:00:47.442Z,16.20
2018-04-23T05:03:15.058Z,16.30
2018-04-23T05:05:42.560Z,16.20
2018-04-23T05:08:10.305Z,16.30
2018-04-23T05:10:38.755Z,16.20
2018-04-23T05:13:06.274Z,16.20
2018-04-23T05:15:34.880Z,16.30
2018-04-23T05:18:02.574Z,16.30
2018-04-23T05:20:30.077Z,16.30
2018-04-23T05:22:57.803Z,16.30
2018-04-23T05:25:25.319Z,16.30
2018-04-23T05:27:53.019Z,16.30
2018-04-23T05:30:20.531Z,16.30
2018-04-23T05:32:48.830Z,16.20
2018-04-23T05:35:16.596Z,16.30
2018-04-23T05:37:44.098Z,16.30
2018-04-23T05:40:11.842Z,16.40
2018-04-23T05:42:39.354Z,16.50
2018-04-23T05:45:07.010Z,16.50
2018-04-23T05:47:34.539Z,16.60
2018-04-23T05:50:02.766Z,17.00
2018-04-23T05:52:30.269Z,16.70
2018-04-23T05:54:58.617Z,16.90
2018-04-23T05:57:26.061Z,16.90
2018-04-23T05:59:53.640Z,16.80
2018-04-23T06:02:21.173Z,16.70
2018-04-23T06:04:49.411Z,16.60
2018-04-23T06:07:16.930Z,16.70
2018-04-23T06:09:44.472Z,16.80
2018-04-23T06:12:12.154Z,16.80
2018-04-23T06:14:39.926Z,16.80
2018-04-23T06:17:07.463Z,16.90
2018-04-23T06:19:35.137Z,16.70
2018-04-23T06:22:02.905Z,16.00
2018-04-23T06:24:30.431Z,15.80
2018-04-23T06:26:57.941Z,15.80
2018-04-23T06:29:25.508Z,15.90
2018-04-23T06:31:53.066Z,15.80
2018-04-23T06:34:20.869Z,15.70
2018-04-23T06:36:48.331Z,15.60
2018-04-23T06:39:16.020Z,15.60
2018-04-23T06:41:43.525Z,15.60
2018-04-23T06:44:12.775Z,15.50
2018-04-23T06:46:40.274Z,15.60
2018-04-23T06:49:08.000Z,15.40
2018-04-23T06:51:35.522Z,15.40
2018-04-23T06:54:03.183Z,15.20
2018-04-23T06:56:30.686Z,15.30
2018-04-23T06:58:58.237Z,15.20
2018-04-23T07:01:25.897Z,15.20
2018-04-23T07:03:53.645Z,15.20
2018-04-23T07:06:21.159Z,15.10
2018-04-23T07:08:48.873Z,15.10
2018-04-23T07:11:16.402Z,15.10
2018-04-23T07:13:43.915Z,15.10
2018-04-23T07:16:11.549Z,15.00
2018-04-23T07:18:39.187Z,14.90
2018-04-23T07:21:06.778Z,14.80
2018-04-23T07:23:34.543Z,14.80
2018-04-23T07:26:02.083Z,14.70
2018-04-23T07:28:29.753Z,14.70
2018-04-23T07:30:57.518Z,14.80
2018-04-23T07:33:25.043Z,14.90
2018-04-23T07:35:52.698Z,15.00
2018-04-23T07:38:20.505Z,14.80
2018-04-23T07:40:48.761Z,14.80
2018-04-23T07:43:16.264Z,14.90
2018-04-23T07:45:43.778Z,14.90
2018-04-23T07:48:11.286Z,15.00
2018-04-23T07:50:39.014Z,14.80
2018-04-23T07:53:06.509Z,14.80
2018-04-23T07:55:34.043Z,14.90
2018-04-23T07:58:01.677Z,14.90
2018-04-23T08:00:29.200Z,15.00
2018-04-23T08:02:56.717Z,15.00
2018-04-23T08:05:24.338Z,15.00
2018-04-23T08:07:52.128Z,14.90
2018-04-23T08:10:19.653Z,14.80
2018-04-23T08:12:47.360Z,14.80
2018-04-23T08:15:14.926Z,14.80
2018-04-23T08:17:42.442Z,14.70
2018-04-23T08:20:09.981Z,14.80
2018-04-23T08:22:37.478Z,14.90
2018-04-23T08:25:04.997Z,14.90
2018-04-23T08:27:32.507Z,14.90
2018-04-23T08:30:00.028Z,15.00
2018-04-23T08:32:27.630Z,15.10
2018-04-23T08:34:55.375Z,15.10
2018-04-23T08:37:22.902Z,15.10
2018-04-23T08:39:50.595Z,15.10
2018-04-23T08:42:18.210Z,15.10
2018-04-23T08:44:45.731Z,15.00
2018-04-23T08:47:13.257Z,15.00
2018-04-23T08:49:40.768Z,14.80
2018-04-23T08:52:08.495Z,14.50
2018-04-23T08:54:35.998Z,14.30
2018-04-23T08:57:03.900Z,14.20
2018-04-23T08:59:31.482Z,14.20
2018-04-23T09:01:59.011Z,14.30
2018-04-23T09:04:26.530Z,14.30
2018-04-23T09:06:54.819Z,14.30
2018-04-23T09:09:22.342Z,14.20
2018-04-23T09:11:49.873Z,14.30
2018-04-23T09:14:17.450Z,14.40
2018-04-23T09:16:44.970Z,14.40
2018-04-23T09:19:12.637Z,14.60
2018-04-23T09:21:40.426Z,14.60
2018-04-23T09:24:08.199Z,14.60
2018-04-23T09:26:36.657Z,14.40
2018-04-23T09:29:04.177Z,14.60
2018-04-23T09:31:32.516Z,14.70
2018-04-23T09:34:00.040Z,14.70
2018-04-23T09:36:27.538Z,14.60
2018-04-23T09:38:55.083Z,14.60
2018-04-23T09:41:22.858Z,14.60
2018-04-23T09:43:50.376Z,14.60
2018-04-23T09:46:18.057Z,14.80
2018-04-23T09:48:45.595Z,15.00
2018-04-23T09:51:13.114Z,15.30
2018-04-23T09:53:40.614Z,15.60
2018-04-23T09:56:08.203Z,15.70
2018-04-23T09:58:36.307Z,15.70
2018-04-23T10:01:09.498Z,15.40
2018-04-23T10:03:42.030Z,15.40
2018-04-23T10:06:09.585Z,15.40
2018-04-23T10:08:37.132Z,15.60
2018-04-23T10:11:04.646Z,15.70
2018-04-23T10:13:32.373Z,15.40
2018-04-23T10:16:00.137Z,15.20
2018-04-23T10:18:27.763Z,14.70
2018-04-23T10:20:56.056Z,14.50
2018-04-23T10:23:23.703Z,14.30
2018-04-23T10:25:51.221Z,14.40
2018-04-23T10:28:18.931Z,14.60
2018-04-23T10:30:46.458Z,14.80
2018-04-23T10:33:13.970Z,15.00
2018-04-23T10:35:41.591Z,15.00
2018-04-23T10:38:09.118Z,15.10
2018-04-23T10:40:36.619Z,15.10
2018-04-23T10:43:04.138Z,15.40
2018-04-23T10:45:32.422Z,15.70
2018-04-23T10:48:00.119Z,15.70
2018-04-23T10:50:27.910Z,15.80
2018-04-23T10:52:55.850Z,15.60
2018-04-23T10:55:23.456Z,15.50
2018-04-23T10:57:51.161Z,15.40
2018-04-23T11:00:18.798Z,15.60
2018-04-23T11:02:47.118Z,15.30
2018-04-23T11:05:14.755Z,15.30
2018-04-23T11:07:42.278Z,15.30
2018-04-23T11:10:10.042Z,15.50
2018-04-23T11:12:37.561Z,15.10
2018-04-23T11:15:05.069Z,15.10
2018-04-23T11:17:33.382Z,15.20
2018-04-23T11:20:00.879Z,15.20
2018-04-23T11:22:28.396Z,15.30
2018-04-23T11:24:56.219Z,15.40
2018-04-23T11:27:23.744Z,15.30
2018-04-23T11:29:51.243Z,15.30
2018-04-23T11:32:18.973Z,15.30
2018-04-23T11:34:46.480Z,15.60
2018-04-23T11:37:14.186Z,15.50
2018-04-23T11:39:41.690Z,15.70
2018-04-23T11:42:09.414Z,16.00
2018-04-23T11:44:36.921Z,15.70
2018-04-23T11:47:04.444Z,15.50
2018-04-23T11:49:31.984Z,15.70
2018-04-23T11:51:59.495Z,16.10
2018-04-23T11:54:27.010Z,16.30
2018-04-23T11:56:55.064Z,16.20
2018-04-23T11:59:22.844Z,16.10
2018-04-23T12:01:50.360Z,16.10
2018-04-23T12:04:17.865Z,16.30
2018-04-23T12:06:45.392Z,16.30
2018-04-23T12:09:12.970Z,16.00
2018-04-23T12:11:40.501Z,15.90
2018-04-23T12:14:08.179Z,15.80
2018-04-23T12:16:35.679Z,15.70
2018-04-23T12:19:03.272Z,15.80
2018-04-23T12:21:30.858Z,15.80
2018-04-23T12:23:58.375Z,15.90
2018-04-23T12:26:25.874Z,16.20
2018-04-23T12:28:53.513Z,16.30
2018-04-23T12:31:21.044Z,16.40
2018-04-23T12:33:48.549Z,16.20
2018-04-23T12:36:16.180Z,16.00
2018-04-23T12:38:43.691Z,16.10
2018-04-23T12:41:11.234Z,16.00
2018-04-23T12:43:39.001Z,16.00
2018-04-23T12:46:06.613Z,16.20
2018-04-23T12:48:34.081Z,16.20
2018-04-23T12:51:01.655Z,16.10
2018-04-23T12:53:29.134Z,15.90
2018-04-23T12:55:56.671Z,15.90
2018-04-23T12:58:24.239Z,15.80
2018-04-23T13:00:51.752Z,16.00
2018-04-23T13:03:19.337Z,16.00
2018-04-23T13:05:46.826Z,16.00
2018-04-23T13:08:14.373Z,16.10
2018-04-23T13:10:42.137Z,16.20
2018-04-23T13:13:09.894Z,16.00
2018-04-23T13:15:37.675Z,16.10
2018-04-23T13:18:05.187Z,16.40
2018-04-23T13:20:32.701Z,16.40
2018-04-23T13:23:00.306Z,16.70
2018-04-23T13:25:27.876Z,16.80
2018-04-23T13:27:55.374Z,16.80
2018-04-23T13:30:23.035Z,16.50
2018-04-23T13:32:52.758Z,16.50
2018-04-23T13:35:20.267Z,16.50
2018-04-23T13:37:47.851Z,16.60
2018-04-23T13:40:15.355Z,16.30
2018-04-23T13:42:43.609Z,16.40
2018-04-23T13:45:11.114Z,16.70
2018-04-23T13:47:38.621Z,16.70
2018-04-23T13:50:06.137Z,16.50
2018-04-23T13:52:33.759Z,16.40
2018-04-23T13:55:01.254Z,16.30
2018-04-23T13:57:29.027Z,16.70
2018-04-23T13:59:56.801Z,17.00
2018-04-23T14:02:24.306Z,16.80
2018-04-23T14:04:51.831Z,16.80
2018-04-23T14:07:19.342Z,16.60
2018-04-23T14:09:46.952Z,16.50
2018-04-23T14:12:14.460Z,16.60
2018-04-23T14:14:41.996Z,16.60
2018-04-23T14:17:10.280Z,16.30
2018-04-23T14:19:37.794Z,16.30
2018-04-23T14:22:05.450Z,16.20
2018-04-23T14:24:33.006Z,16.20
2018-04-23T14:27:00.510Z,16.10
2018-04-23T14:29:28.040Z,16.10
2018-04-23T14:31:55.548Z,16.20
2018-04-23T14:34:23.069Z,16.40
2018-04-23T14:36:50.790Z,16.90
2018-04-23T14:39:18.562Z,17.20
2018-04-23T14:41:46.070Z,17.00
2018-04-23T14:44:13.754Z,17.10
2018-04-23T14:46:41.551Z,17.40
2018-04-23T14:49:09.076Z,17.30
2018-04-23T14:51:36.585Z,16.50
2018-04-23T14:54:04.218Z,16.30
2018-04-23T14:56:31.986Z,16.50
2018-04-23T14:58:59.745Z,16.90
2018-04-23T15:01:27.457Z,17.00
2018-04-23T15:03:54.978Z,16.80
2018-04-23T15:06:22.481Z,16.70
2018-04-23T15:08:50.221Z,16.40
2018-04-23T15:11:17.736Z,16.50
2018-04-23T15:13:45.405Z,16.50
2018-04-23T15:16:12.914Z,16.50
2018-04-23T15:18:40.601Z,16.20
2018-04-23T15:21:08.110Z,16.40
2018-04-23T15:23:35.832Z,16.50
2018-04-23T15:26:03.624Z,16.60
2018-04-23T15:28:31.147Z,16.30
2018-04-23T15:30:58.803Z,16.40
2018-04-23T15:33:26.360Z,16.30
2018-04-23T15:35:54.189Z,16.10
2018-04-23T15:38:22.468Z,16.40
2018-04-23T15:40:50.745Z,16.70
2018-04-23T15:43:18.269Z,16.70
2018-04-23T15:45:47.285Z,16.70
2018-04-23T15:48:14.798Z,16.70
2018-04-23T15:50:42.307Z,16.80
2018-04-23T15:55:45.370Z,16.50
2018-04-23T15:58:12.874Z,17.10
2018-04-23T16:00:40.464Z,17.40
2018-04-23T16:03:08.151Z,17.70
2018-04-23T16:05:35.790Z,18.20
2018-04-23T16:08:03.295Z,18.40
2018-04-23T16:10:32.570Z,18.50
2018-04-23T16:13:00.079Z,18.50
2018-04-23T16:15:27.590Z,17.40
2018-04-23T16:17:55.102Z,16.60
2018-04-23T16:20:22.710Z,16.60
2018-04-23T16:22:50.471Z,16.50
2018-04-23T16:25:18.229Z,16.40
2018-04-23T16:27:45.733Z,16.40
2018-04-23T16:30:13.458Z,16.00
2018-04-23T16:32:40.970Z,15.60
2018-04-23T16:35:08.504Z,15.30
2018-04-23T16:37:36.127Z,15.50
2018-04-23T16:40:03.872Z,15.20
2018-04-23T16:42:31.362Z,15.00
2018-04-23T16:44:59.159Z,15.10
2018-04-23T16:47:26.617Z,15.20
2018-04-23T16:49:54.136Z,15.60
2018-04-23T16:52:21.650Z,15.50
2018-04-23T16:54:49.905Z,15.50
2018-04-23T16:57:19.111Z,15.70
2018-04-23T16:59:46.691Z,15.60
2018-04-23T17:02:14.918Z,15.30
2018-04-23T17:04:42.450Z,14.80
2018-04-23T17:07:09.956Z,14.90
2018-04-23T17:09:37.777Z,15.10
2018-04-23T17:12:05.297Z,15.00
2018-04-23T17:14:32.810Z,14.80
2018-04-23T17:17:01.087Z,14.80
2018-04-23T17:19:28.598Z,14.80
2018-04-23T17:21:56.198Z,14.90
2018-04-23T17:24:23.714Z,14.90
2018-04-23T17:26:51.269Z,14.70
2018-04-23T17:29:19.795Z,15.00
2018-04-23T17:31:48.332Z,15.00
2018-04-23T17:34:16.495Z,14.80
2018-04-23T17:36:44.009Z,14.50
2018-04-23T17:39:11.526Z,14.20
2018-04-23T17:41:39.071Z,13.90
2018-04-23T17:44:08.038Z,13.70
2018-04-23T17:46:36.321Z,13.10
2018-04-23T17:49:03.862Z,13.10
2018-04-23T17:51:31.495Z,13.10
2018-04-23T17:53:59.881Z,12.80
2018-04-23T17:56:27.427Z,12.80
2018-04-23T17:58:54.933Z,12.90
2018-04-23T18:01:23.223Z,12.60
2018-04-23T18:03:50.754Z,12.50
2018-04-23T18:06:19.452Z,12.60
2018-04-23T18:08:48.607Z,12.40
2018-04-23T18:11:16.168Z,12.40
2018-04-23T18:13:43.678Z,12.30
2018-04-23T18:16:12.018Z,12.30
2018-04-23T18:18:39.654Z,12.30
2018-04-23T18:21:07.185Z,12.40
2018-04-23T18:23:34.698Z,12.40
2018-04-23T18:26:02.366Z,12.20
2018-04-23T18:28:29.968Z,12.00
2018-04-23T18:30:57.480Z,12.10
2018-04-23T18:33:26.150Z,12.00
2018-04-23T18:35:53.712Z,12.00
2018-04-23T18:38:21.926Z,12.30
2018-04-23T18:40:50.227Z,12.60
2018-04-23T18:43:17.885Z,12.60
2018-04-23T18:45:45.405Z,12.50
2018-04-23T18:48:13.337Z,12.60
2018-04-23T18:50:40.872Z,12.60
2018-04-23T18:53:08.396Z,12.50
2018-04-23T18:55:36.777Z,12.30
2018-04-23T18:58:04.234Z,12.00
2018-04-23T19:00:33.004Z,11.70
2018-04-23T19:03:01.289Z,11.90
2018-04-23T19:05:29.070Z,11.80
2018-04-23T19:07:56.598Z,11.90
2018-04-23T19:10:24.106Z,11.80
2018-04-23T19:12:51.641Z,11.60
2018-04-23T19:15:19.154Z,11.70
2018-04-23T19:17:46.750Z,11.80
2018-04-23T19:20:14.439Z,11.60
2018-04-23T19:22:42.263Z,11.50
2018-04-23T19:25:09.917Z,11.50
2018-04-23T19:27:37.426Z,11.50
2018-04-23T19:30:05.119Z,11.50
2018-04-23T19:32:32.646Z,11.50
2018-04-23T19:35:00.150Z,11.80
2018-04-23T19:37:27.768Z,12.20
2018-04-23T19:39:55.827Z,12.10
2018-04-23T19:42:23.840Z,12.30
2018-04-23T19:44:51.370Z,12.00
2018-04-23T19:47:20.062Z,11.80
2018-04-23T19:49:47.566Z,11.60
2018-04-23T19:52:15.160Z,11.70
2018-04-23T19:54:42.681Z,11.70
2018-04-23T19:57:10.185Z,11.70
2018-04-23T19:59:37.977Z,11.80
2018-04-23T20:02:05.627Z,11.80
2018-04-23T20:04:33.187Z,11.80
2018-04-23T20:07:00.714Z,11.60
2018-04-23T20:09:28.226Z,11.50
2018-04-23T20:11:56.100Z,11.40
2018-04-23T20:14:24.549Z,11.30
2018-04-23T20:16:52.081Z,11.20
2018-04-23T20:19:19.769Z,11.20
2018-04-23T20:21:47.642Z,11.30
2018-04-23T20:24:15.175Z,11.20
2018-04-23T20:26:42.658Z,11.30
2018-04-23T20:29:11.071Z,11.20
2018-04-23T20:31:38.595Z,11.10
2018-04-23T20:34:06.106Z,11.20
2018-04-23T20:36:33.804Z,11.30
2018-04-23T20:39:01.315Z,11.20
2018-04-23T20:41:28.998Z,11.30
2018-04-23T20:43:56.850Z,11.00
2018-04-23T20:46:24.732Z,11.00
2018-04-23T20:48:52.225Z,10.90
2018-04-23T20:51:19.755Z,10.90
2018-04-23T20:53:47.529Z,10.90
2018-04-23T20:56:15.102Z,10.70
2018-04-23T20:58:42.602Z,10.70
2018-04-23T21:01:10.392Z,10.80
2018-04-23T21:03:37.950Z,10.80
2018-04-23T21:06:05.447Z,10.80
2018-04-23T21:08:32.974Z,10.90
2018-04-23T21:11:00.547Z,10.90
2018-04-23T21:13:28.815Z,11.00
2018-04-23T21:15:56.463Z,11.00
2018-04-23T21:18:23.987Z,10.90
2018-04-23T21:20:51.502Z,11.00
2018-04-23T21:23:20.137Z,10.70
2018-04-23T21:25:48.465Z,10.70
2018-04-23T21:28:15.974Z,10.70
2018-04-23T21:30:43.637Z,10.70
2018-04-23T21:33:11.352Z,10.70
2018-04-23T21:35:38.856Z,10.70
2018-04-23T21:38:06.577Z,10.70
2018-04-23T21:40:34.125Z,10.90
2018-04-23T21:43:01.674Z,10.80
2018-04-23T21:45:29.295Z,10.80
2018-04-23T21:47:56.817Z,10.90
2018-04-23T21:50:25.667Z,10.90
2018-04-23T21:52:53.228Z,10.80
2018-04-23T21:55:20.726Z,11.00
2018-04-23T21:57:48.342Z,11.00
2018-04-23T22:00:15.903Z,11.10
2018-04-23T22:02:43.453Z,11.00
2018-04-23T22:05:10.929Z,11.00
2018-04-23T22:07:38.606Z,11.00
2018-04-23T22:10:06.342Z,11.00
2018-04-23T22:12:33.846Z,11.00
2018-04-23T22:15:01.378Z,10.90
2018-04-23T22:17:29.886Z,10.90
2018-04-23T22:19:57.406Z,10.90
2018-04-23T22:22:25.188Z,10.80
2018-04-23T22:24:52.691Z,10.90
2018-04-23T22:27:20.384Z,11.00
2018-04-23T22:29:48.169Z,11.10
2018-04-23T22:32:15.689Z,11.10
2018-04-23T22:34:43.576Z,11.10
2018-04-23T22:37:11.095Z,11.10
2018-04-23T22:39:38.585Z,11.10
2018-04-23T22:42:06.108Z,11.20
2018-04-23T22:44:33.829Z,11.20
2018-04-23T22:47:01.353Z,11.20
2018-04-23T22:49:29.019Z,11.10
2018-04-23T22:51:56.813Z,11.10
2018-04-23T22:54:24.582Z,11.10
2018-04-23T22:56:52.343Z,11.10
2018-04-23T22:59:19.866Z,11.00
2018-04-23T23:01:47.534Z,10.80
2018-04-23T23:04:15.051Z,10.90
2018-04-23T23:06:42.558Z,10.90
2018-04-23T23:09:10.128Z,10.90
2018-04-23T23:11:37.644Z,10.90
2018-04-23T23:14:05.704Z,10.90
2018-04-23T23:16:33.208Z,10.90
2018-04-23T23:19:00.717Z,10.80
2018-04-23T23:21:28.990Z,10.90
2018-04-23T23:23:56.499Z,10.90
2018-04-23T23:26:24.269Z,10.80
2018-04-23T23:28:52.034Z,10.90
2018-04-23T23:31:19.554Z,11.00
2018-04-23T23:33:47.253Z,11.00
2018-04-23T23:36:14.766Z,11.00
2018-04-23T23:38:42.472Z,11.00
2018-04-23T23:41:10.238Z,11.00
2018-04-23T23:43:37.762Z,11.10
2018-04-23T23:46:05.464Z,11.10
2018-04-23T23:48:32.976Z,11.20
2018-04-23T23:51:00.662Z,11.20
2018-04-23T23:53:28.167Z,11.10
2018-04-23T23:55:56.725Z,11.00
2018-04-23T23:58:24.246Z,11.10
